sensor_id;sensor_type;location;lat;lon;timestamp;temperature;humidity
30678;DHT22;17437;47.188;8.896;2023-05-01T00:00:51;13.50;99.90
30678;DHT22;17437;47.188;8.896;2023-05-01T00:03:23;13.50;99.90
30678;DHT22;17437;47.188;8.896;2023-05-01T00:06:00;13.40;99.90
30678;DHT22;17437;47.188;8.896;2023-05-01T00:08:33;13.30;99.90
30678;DHT22;17437;47.188;8.896;2023-05-01T00:11:06;13.20;99.90
30678;DHT22;17437;47.188;8.896;2023-05-01T00:13:39;13.10;99.90
30678;DHT22;17437;47.188;8.896;2023-05-01T00:16:11;13.10;99.90
30678;DHT22;17437;47.188;8.896;2023-05-01T00:18:42;13.00;99.90
30678;DHT22;17437;47.188;8.896;2023-05-01T00:21:14;12.90;99.90
30678;DHT22;17437;47.188;8.896;2023-05-01T00:23:46;12.90;99.90
30678;DHT22;17437;47.188;8.896;2023-05-01T00:26:17;12.90;99.90
30678;DHT22;17437;47.188;8.896;2023-05-01T00:28:48;12.80;99.90
30678;DHT22;17437;47.188;8.896;2023-05-01T00:31:20;12.70;99.90
30678;DHT22;17437;47.188;8.896;2023-05-01T00:33:52;12.70;99.90
30678;DHT22;17437;47.188;8.896;2023-05-01T00:36:23;12.60;99.90
30678;DHT22;17437;47.188;8.896;2023-05-01T00:38:55;12.60;99.90
30678;DHT22;17437;47.188;8.896;2023-05-01T00:41:27;12.60;99.90
30678;DHT22;17437;47.188;8.896;2023-05-01T00:43:58;12.60;99.90
30678;DHT22;17437;47.188;8.896;2023-05-01T00:46:31;12.60;99.90
30678;DHT22;17437;47.188;8.896;2023-05-01T00:49:04;12.50;99.90
30678;DHT22;17437;47.188;8.896;2023-05-01T00:51:35;12.50;99.90
30678;DHT22;17437;47.188;8.896;2023-05-01T00:54:07;12.50;99.90
30678;DHT22;17437;47.188;8.896;2023-05-01T00:56:39;12.50;99.90
30678;DHT22;17437;47.188;8.896;2023-05-01T00:59:11;12.50;99.90
30678;DHT22;17437;47.188;8.896;2023-05-01T01:01:42;12.50;99.90
30678;DHT22;17437;47.188;8.896;2023-05-01T01:04:14;12.40;99.90
30678;DHT22;17437;47.188;8.896;2023-05-01T01:06:51;12.40;99.90
30678;DHT22;17437;47.188;8.896;2023-05-01T01:09:30;12.40;99.90
30678;DHT22;17437;47.188;8.896;2023-05-01T01:12:08;12.40;99.90
30678;DHT22;17437;47.188;8.896;2023-05-01T01:14:41;12.40;99.90
30678;DHT22;17437;47.188;8.896;2023-05-01T01:17:18;12.40;99.90
30678;DHT22;17437;47.188;8.896;2023-05-01T01:20:15;12.40;99.90
30678;DHT22;17437;47.188;8.896;2023-05-01T01:22:52;12.40;99.90
30678;DHT22;17437;47.188;8.896;2023-05-01T01:25:50;12.40;99.90
30678;DHT22;17437;47.188;8.896;2023-05-01T01:28:44;12.30;99.90
30678;DHT22;17437;47.188;8.896;2023-05-01T01:31:17;12.20;99.90
30678;DHT22;17437;47.188;8.896;2023-05-01T01:33:54;12.20;99.90
30678;DHT22;17437;47.188;8.896;2023-05-01T01:36:33;12.20;99.90
30678;DHT22;17437;47.188;8.896;2023-05-01T01:39:09;12.10;99.90
30678;DHT22;17437;47.188;8.896;2023-05-01T01:41:44;12.10;99.90
30678;DHT22;17437;47.188;8.896;2023-05-01T01:44:18;12.10;99.90
30678;DHT22;17437;47.188;8.896;2023-05-01T01:46:52;12.10;99.90
30678;DHT22;17437;47.188;8.896;2023-05-01T01:49:26;12.00;99.90
30678;DHT22;17437;47.188;8.896;2023-05-01T01:52:01;12.00;99.90
30678;DHT22;17437;47.188;8.896;2023-05-01T01:54:36;11.90;99.90
30678;DHT22;17437;47.188;8.896;2023-05-01T01:57:10;11.90;99.90
30678;DHT22;17437;47.188;8.896;2023-05-01T01:59:44;11.90;99.90
30678;DHT22;17437;47.188;8.896;2023-05-01T02:02:18;11.90;99.90
30678;DHT22;17437;47.188;8.896;2023-05-01T02:04:51;11.80;99.90
30678;DHT22;17437;47.188;8.896;2023-05-01T02:07:24;11.80;99.90
30678;DHT22;17437;47.188;8.896;2023-05-01T02:09:57;11.80;99.90
30678;DHT22;17437;47.188;8.896;2023-05-01T02:12:29;11.90;99.90
30678;DHT22;17437;47.188;8.896;2023-05-01T02:15:02;11.80;99.90
30678;DHT22;17437;47.188;8.896;2023-05-01T02:17:35;11.80;99.90
30678;DHT22;17437;47.188;8.896;2023-05-01T02:20:10;11.90;99.90
30678;DHT22;17437;47.188;8.896;2023-05-01T02:22:42;11.80;99.90
30678;DHT22;17437;47.188;8.896;2023-05-01T02:25:16;11.80;99.90
30678;DHT22;17437;47.188;8.896;2023-05-01T02:27:52;11.80;99.90
30678;DHT22;17437;47.188;8.896;2023-05-01T02:30:22;11.90;99.90
30678;DHT22;17437;47.188;8.896;2023-05-01T02:32:54;11.90;99.90
30678;DHT22;17437;47.188;8.896;2023-05-01T02:35:27;11.90;99.90
30678;DHT22;17437;47.188;8.896;2023-05-01T02:37:59;11.80;99.90
30678;DHT22;17437;47.188;8.896;2023-05-01T02:40:31;11.90;99.90
30678;DHT22;17437;47.188;8.896;2023-05-01T02:43:05;11.80;99.90
30678;DHT22;17437;47.188;8.896;2023-05-01T02:45:39;11.80;99.90
30678;DHT22;17437;47.188;8.896;2023-05-01T02:48:14;11.80;99.90
30678;DHT22;17437;47.188;8.896;2023-05-01T02:50:48;11.80;99.90
30678;DHT22;17437;47.188;8.896;2023-05-01T02:53:21;11.70;99.90
30678;DHT22;17437;47.188;8.896;2023-05-01T02:55:52;11.80;99.90
30678;DHT22;17437;47.188;8.896;2023-05-01T02:58:24;11.70;99.90
30678;DHT22;17437;47.188;8.896;2023-05-01T03:00:56;11.70;99.90
30678;DHT22;17437;47.188;8.896;2023-05-01T03:03:28;11.70;99.90
30678;DHT22;17437;47.188;8.896;2023-05-01T03:05:59;11.70;99.90
30678;DHT22;17437;47.188;8.896;2023-05-01T03:08:32;11.70;99.90
30678;DHT22;17437;47.188;8.896;2023-05-01T03:11:05;11.70;99.90
30678;DHT22;17437;47.188;8.896;2023-05-01T03:13:37;11.70;99.90
30678;DHT22;17437;47.188;8.896;2023-05-01T03:16:08;11.70;99.90
30678;DHT22;17437;47.188;8.896;2023-05-01T03:18:40;11.70;99.90
30678;DHT22;17437;47.188;8.896;2023-05-01T03:21:11;11.70;99.90
30678;DHT22;17437;47.188;8.896;2023-05-01T03:23:43;11.70;99.90
30678;DHT22;17437;47.188;8.896;2023-05-01T03:26:14;11.60;99.90
30678;DHT22;17437;47.188;8.896;2023-05-01T03:28:46;11.70;99.90
30678;DHT22;17437;47.188;8.896;2023-05-01T03:31:18;11.70;99.90
30678;DHT22;17437;47.188;8.896;2023-05-01T03:33:49;11.70;99.90
30678;DHT22;17437;47.188;8.896;2023-05-01T03:36:21;11.70;99.90
30678;DHT22;17437;47.188;8.896;2023-05-01T03:38:52;11.60;99.90
30678;DHT22;17437;47.188;8.896;2023-05-01T03:41:24;11.60;99.90
30678;DHT22;17437;47.188;8.896;2023-05-01T03:43:56;11.60;99.90
30678;DHT22;17437;47.188;8.896;2023-05-01T03:46:27;11.60;99.90
30678;DHT22;17437;47.188;8.896;2023-05-01T03:48:59;11.50;99.90
30678;DHT22;17437;47.188;8.896;2023-05-01T03:51:31;11.60;99.90
30678;DHT22;17437;47.188;8.896;2023-05-01T03:54:03;11.60;99.90
30678;DHT22;17437;47.188;8.896;2023-05-01T03:56:34;11.60;99.90
30678;DHT22;17437;47.188;8.896;2023-05-01T03:59:07;11.50;99.90
30678;DHT22;17437;47.188;8.896;2023-05-01T04:01:39;11.50;99.90
30678;DHT22;17437;47.188;8.896;2023-05-01T04:04:10;11.50;99.90
30678;DHT22;17437;47.188;8.896;2023-05-01T04:06:43;11.50;99.90
30678;DHT22;17437;47.188;8.896;2023-05-01T04:09:15;11.40;99.90
30678;DHT22;17437;47.188;8.896;2023-05-01T04:11:46;11.40;99.90
30678;DHT22;17437;47.188;8.896;2023-05-01T04:14:17;11.40;99.90
30678;DHT22;17437;47.188;8.896;2023-05-01T04:16:49;11.40;99.90
30678;DHT22;17437;47.188;8.896;2023-05-01T04:19:21;11.40;99.90
30678;DHT22;17437;47.188;8.896;2023-05-01T04:21:52;11.30;99.90
30678;DHT22;17437;47.188;8.896;2023-05-01T04:24:24;11.30;99.90
30678;DHT22;17437;47.188;8.896;2023-05-01T04:26:56;11.40;99.90
30678;DHT22;17437;47.188;8.896;2023-05-01T04:29:27;11.40;99.90
30678;DHT22;17437;47.188;8.896;2023-05-01T04:31:59;11.30;99.90
30678;DHT22;17437;47.188;8.896;2023-05-01T04:34:32;11.30;99.90
30678;DHT22;17437;47.188;8.896;2023-05-01T04:37:03;11.20;99.90
30678;DHT22;17437;47.188;8.896;2023-05-01T04:39:36;11.30;99.90
30678;DHT22;17437;47.188;8.896;2023-05-01T04:42:08;11.30;99.90
30678;DHT22;17437;47.188;8.896;2023-05-01T04:44:39;11.30;99.90
30678;DHT22;17437;47.188;8.896;2023-05-01T04:47:11;11.30;99.90
30678;DHT22;17437;47.188;8.896;2023-05-01T04:49:42;11.30;99.90
30678;DHT22;17437;47.188;8.896;2023-05-01T04:52:14;11.40;99.90
30678;DHT22;17437;47.188;8.896;2023-05-01T04:54:46;11.30;99.90
30678;DHT22;17437;47.188;8.896;2023-05-01T04:57:17;11.30;99.90
30678;DHT22;17437;47.188;8.896;2023-05-01T04:59:50;11.30;99.90
30678;DHT22;17437;47.188;8.896;2023-05-01T05:02:22;11.30;99.90
30678;DHT22;17437;47.188;8.896;2023-05-01T05:04:54;11.30;99.90
30678;DHT22;17437;47.188;8.896;2023-05-01T05:07:27;11.30;99.90
30678;DHT22;17437;47.188;8.896;2023-05-01T05:09:58;11.20;99.90
30678;DHT22;17437;47.188;8.896;2023-05-01T05:12:30;11.20;99.90
30678;DHT22;17437;47.188;8.896;2023-05-01T05:15:01;11.20;99.90
30678;DHT22;17437;47.188;8.896;2023-05-01T05:17:33;11.20;99.90
30678;DHT22;17437;47.188;8.896;2023-05-01T05:20:07;11.20;99.90
30678;DHT22;17437;47.188;8.896;2023-05-01T05:22:39;11.20;99.90
30678;DHT22;17437;47.188;8.896;2023-05-01T05:25:10;11.10;99.90
30678;DHT22;17437;47.188;8.896;2023-05-01T05:27:42;11.10;99.90
30678;DHT22;17437;47.188;8.896;2023-05-01T05:30:13;11.20;99.90
30678;DHT22;17437;47.188;8.896;2023-05-01T05:32:46;11.20;99.90
30678;DHT22;17437;47.188;8.896;2023-05-01T05:35:18;11.20;99.90
30678;DHT22;17437;47.188;8.896;2023-05-01T05:37:50;11.30;99.90
30678;DHT22;17437;47.188;8.896;2023-05-01T05:40:21;11.30;99.90
30678;DHT22;17437;47.188;8.896;2023-05-01T05:42:53;11.30;99.90
30678;DHT22;17437;47.188;8.896;2023-05-01T05:45:25;11.30;99.90
30678;DHT22;17437;47.188;8.896;2023-05-01T05:47:57;11.40;99.90
30678;DHT22;17437;47.188;8.896;2023-05-01T05:50:29;11.50;99.90
30678;DHT22;17437;47.188;8.896;2023-05-01T05:53:01;11.50;99.90
30678;DHT22;17437;47.188;8.896;2023-05-01T05:55:33;11.40;99.90
30678;DHT22;17437;47.188;8.896;2023-05-01T05:58:04;11.40;99.90
30678;DHT22;17437;47.188;8.896;2023-05-01T06:00:36;11.40;99.90
30678;DHT22;17437;47.188;8.896;2023-05-01T06:03:09;11.50;99.90
30678;DHT22;17437;47.188;8.896;2023-05-01T06:05:41;11.60;99.90
30678;DHT22;17437;47.188;8.896;2023-05-01T06:08:13;11.60;99.90
30678;DHT22;17437;47.188;8.896;2023-05-01T06:10:45;11.60;99.90
30678;DHT22;17437;47.188;8.896;2023-05-01T06:13:17;11.50;99.90
30678;DHT22;17437;47.188;8.896;2023-05-01T06:15:49;11.50;99.90
30678;DHT22;17437;47.188;8.896;2023-05-01T06:18:21;11.60;99.90
30678;DHT22;17437;47.188;8.896;2023-05-01T06:20:52;11.60;99.90
30678;DHT22;17437;47.188;8.896;2023-05-01T06:23:24;11.60;99.90
30678;DHT22;17437;47.188;8.896;2023-05-01T06:25:55;11.70;99.90
30678;DHT22;17437;47.188;8.896;2023-05-01T06:28:27;11.60;99.90
30678;DHT22;17437;47.188;8.896;2023-05-01T06:30:59;11.70;99.90
30678;DHT22;17437;47.188;8.896;2023-05-01T06:33:31;11.70;99.90
30678;DHT22;17437;47.188;8.896;2023-05-01T06:36:04;11.80;99.90
30678;DHT22;17437;47.188;8.896;2023-05-01T06:38:36;11.80;99.90
30678;DHT22;17437;47.188;8.896;2023-05-01T06:41:07;11.90;99.90
30678;DHT22;17437;47.188;8.896;2023-05-01T06:43:39;12.00;99.90
30678;DHT22;17437;47.188;8.896;2023-05-01T06:46:10;12.10;99.90
30678;DHT22;17437;47.188;8.896;2023-05-01T06:48:42;12.30;99.90
30678;DHT22;17437;47.188;8.896;2023-05-01T06:51:14;12.40;99.90
30678;DHT22;17437;47.188;8.896;2023-05-01T06:53:45;12.40;99.90
30678;DHT22;17437;47.188;8.896;2023-05-01T06:56:17;12.50;99.90
30678;DHT22;17437;47.188;8.896;2023-05-01T06:58:48;12.60;99.90
30678;DHT22;17437;47.188;8.896;2023-05-01T07:01:20;12.60;99.90
30678;DHT22;17437;47.188;8.896;2023-05-01T07:03:52;12.60;99.90
30678;DHT22;17437;47.188;8.896;2023-05-01T07:06:23;12.70;99.90
30678;DHT22;17437;47.188;8.896;2023-05-01T07:08:55;12.80;99.90
30678;DHT22;17437;47.188;8.896;2023-05-01T07:11:26;12.80;99.90
30678;DHT22;17437;47.188;8.896;2023-05-01T07:13:58;12.80;99.90
30678;DHT22;17437;47.188;8.896;2023-05-01T07:16:30;12.80;99.90
30678;DHT22;17437;47.188;8.896;2023-05-01T07:19:02;12.90;99.90
30678;DHT22;17437;47.188;8.896;2023-05-01T07:21:33;13.00;99.90
30678;DHT22;17437;47.188;8.896;2023-05-01T07:24:06;12.90;99.90
30678;DHT22;17437;47.188;8.896;2023-05-01T07:26:37;13.00;99.90
30678;DHT22;17437;47.188;8.896;2023-05-01T07:29:09;13.00;99.90
30678;DHT22;17437;47.188;8.896;2023-05-01T07:31:41;13.00;99.90
30678;DHT22;17437;47.188;8.896;2023-05-01T07:34:13;13.00;99.90
30678;DHT22;17437;47.188;8.896;2023-05-01T07:36:46;13.00;99.90
30678;DHT22;17437;47.188;8.896;2023-05-01T07:39:17;13.00;99.90
30678;DHT22;17437;47.188;8.896;2023-05-01T07:41:49;13.00;99.90
30678;DHT22;17437;47.188;8.896;2023-05-01T07:44:20;13.10;99.90
30678;DHT22;17437;47.188;8.896;2023-05-01T07:46:52;13.10;99.90
30678;DHT22;17437;47.188;8.896;2023-05-01T07:49:24;13.10;99.90
30678;DHT22;17437;47.188;8.896;2023-05-01T07:51:55;13.10;99.90
30678;DHT22;17437;47.188;8.896;2023-05-01T07:54:27;13.00;99.90
30678;DHT22;17437;47.188;8.896;2023-05-01T07:56:58;13.00;99.90
30678;DHT22;17437;47.188;8.896;2023-05-01T07:59:31;13.00;99.90
30678;DHT22;17437;47.188;8.896;2023-05-01T08:02:02;13.00;99.90
30678;DHT22;17437;47.188;8.896;2023-05-01T08:04:34;13.10;99.90
30678;DHT22;17437;47.188;8.896;2023-05-01T08:07:06;13.10;99.90
30678;DHT22;17437;47.188;8.896;2023-05-01T08:09:37;13.10;99.90
30678;DHT22;17437;47.188;8.896;2023-05-01T08:12:09;13.00;99.90
30678;DHT22;17437;47.188;8.896;2023-05-01T08:14:40;13.00;99.90
30678;DHT22;17437;47.188;8.896;2023-05-01T08:17:12;13.00;99.90
30678;DHT22;17437;47.188;8.896;2023-05-01T08:19:44;12.90;99.90
30678;DHT22;17437;47.188;8.896;2023-05-01T08:22:16;12.90;99.90
30678;DHT22;17437;47.188;8.896;2023-05-01T08:24:47;12.90;99.90
30678;DHT22;17437;47.188;8.896;2023-05-01T08:27:19;13.00;99.90
30678;DHT22;17437;47.188;8.896;2023-05-01T08:29:50;13.00;99.90
30678;DHT22;17437;47.188;8.896;2023-05-01T08:32:22;13.00;99.90
30678;DHT22;17437;47.188;8.896;2023-05-01T08:34:53;13.00;99.90
30678;DHT22;17437;47.188;8.896;2023-05-01T08:37:25;13.10;99.90
30678;DHT22;17437;47.188;8.896;2023-05-01T08:39:57;13.20;99.90
30678;DHT22;17437;47.188;8.896;2023-05-01T08:42:28;13.20;99.90
30678;DHT22;17437;47.188;8.896;2023-05-01T08:45:03;13.20;99.90
30678;DHT22;17437;47.188;8.896;2023-05-01T08:47:37;13.10;99.90
30678;DHT22;17437;47.188;8.896;2023-05-01T08:50:10;13.20;99.90
30678;DHT22;17437;47.188;8.896;2023-05-01T08:52:43;13.30;99.90
30678;DHT22;17437;47.188;8.896;2023-05-01T08:55:17;13.30;99.90
30678;DHT22;17437;47.188;8.896;2023-05-01T08:57:51;13.30;99.90
30678;DHT22;17437;47.188;8.896;2023-05-01T09:00:23;13.20;99.90
30678;DHT22;17437;47.188;8.896;2023-05-01T09:02:56;13.20;99.90
30678;DHT22;17437;47.188;8.896;2023-05-01T09:05:31;13.20;99.90
30678;DHT22;17437;47.188;8.896;2023-05-01T09:08:03;13.00;99.90
30678;DHT22;17437;47.188;8.896;2023-05-01T09:10:38;12.80;99.90
30678;DHT22;17437;47.188;8.896;2023-05-01T09:13:10;12.60;99.90
30678;DHT22;17437;47.188;8.896;2023-05-01T09:15:42;12.60;99.90
30678;DHT22;17437;47.188;8.896;2023-05-01T09:18:13;12.60;99.90
30678;DHT22;17437;47.188;8.896;2023-05-01T09:20:45;12.70;99.90
30678;DHT22;17437;47.188;8.896;2023-05-01T09:23:17;12.90;99.90
30678;DHT22;17437;47.188;8.896;2023-05-01T09:25:50;13.10;99.90
30678;DHT22;17437;47.188;8.896;2023-05-01T09:28:40;13.20;99.90
30678;DHT22;17437;47.188;8.896;2023-05-01T09:31:21;13.20;99.90
30678;DHT22;17437;47.188;8.896;2023-05-01T09:33:54;13.40;99.90
30678;DHT22;17437;47.188;8.896;2023-05-01T09:36:27;13.70;99.90
30678;DHT22;17437;47.188;8.896;2023-05-01T09:39:00;13.90;99.90
30678;DHT22;17437;47.188;8.896;2023-05-01T09:41:32;14.10;99.90
30678;DHT22;17437;47.188;8.896;2023-05-01T09:44:04;14.10;99.90
30678;DHT22;17437;47.188;8.896;2023-05-01T09:46:42;14.20;99.90
30678;DHT22;17437;47.188;8.896;2023-05-01T09:49:14;14.40;99.90
30678;DHT22;17437;47.188;8.896;2023-05-01T09:51:45;14.50;99.90
30678;DHT22;17437;47.188;8.896;2023-05-01T09:54:19;14.30;99.90
30678;DHT22;17437;47.188;8.896;2023-05-01T09:56:51;14.30;99.90
30678;DHT22;17437;47.188;8.896;2023-05-01T09:59:22;14.30;99.90
30678;DHT22;17437;47.188;8.896;2023-05-01T10:01:54;14.30;99.90
30678;DHT22;17437;47.188;8.896;2023-05-01T10:04:30;14.30;99.90
30678;DHT22;17437;47.188;8.896;2023-05-01T10:07:12;14.40;99.90
30678;DHT22;17437;47.188;8.896;2023-05-01T10:09:46;14.40;99.90
30678;DHT22;17437;47.188;8.896;2023-05-01T10:12:24;14.50;99.90
30678;DHT22;17437;47.188;8.896;2023-05-01T10:14:57;14.50;99.90
30678;DHT22;17437;47.188;8.896;2023-05-01T10:17:31;14.60;99.90
30678;DHT22;17437;47.188;8.896;2023-05-01T10:20:07;14.70;99.90
30678;DHT22;17437;47.188;8.896;2023-05-01T10:22:39;14.70;99.90
30678;DHT22;17437;47.188;8.896;2023-05-01T10:25:12;14.90;99.90
30678;DHT22;17437;47.188;8.896;2023-05-01T10:27:44;15.10;99.90
30678;DHT22;17437;47.188;8.896;2023-05-01T10:30:17;15.20;99.90
30678;DHT22;17437;47.188;8.896;2023-05-01T10:32:51;15.40;99.90
30678;DHT22;17437;47.188;8.896;2023-05-01T10:35:26;15.50;99.90
30678;DHT22;17437;47.188;8.896;2023-05-01T10:38:01;15.60;99.90
30678;DHT22;17437;47.188;8.896;2023-05-01T10:40:48;15.50;99.90
30678;DHT22;17437;47.188;8.896;2023-05-01T10:43:22;15.70;99.90
30678;DHT22;17437;47.188;8.896;2023-05-01T10:46:25;15.80;99.90
30678;DHT22;17437;47.188;8.896;2023-05-01T10:48:59;15.90;99.90
30678;DHT22;17437;47.188;8.896;2023-05-01T10:51:30;15.90;99.90
30678;DHT22;17437;47.188;8.896;2023-05-01T10:54:23;15.80;99.90
30678;DHT22;17437;47.188;8.896;2023-05-01T10:56:57;15.70;99.90
30678;DHT22;17437;47.188;8.896;2023-05-01T11:02:36;15.50;99.90
30678;DHT22;17437;47.188;8.896;2023-05-01T11:05:08;15.70;99.90
30678;DHT22;17437;47.188;8.896;2023-05-01T11:07:40;15.60;99.90
30678;DHT22;17437;47.188;8.896;2023-05-01T11:10:25;15.40;99.90
30678;DHT22;17437;47.188;8.896;2023-05-01T11:12:57;15.30;99.90
30678;DHT22;17437;47.188;8.896;2023-05-01T11:15:30;15.10;99.90
30678;DHT22;17437;47.188;8.896;2023-05-01T11:18:03;15.00;99.90
30678;DHT22;17437;47.188;8.896;2023-05-01T11:20:49;14.80;99.90
30678;DHT22;17437;47.188;8.896;2023-05-01T11:23:22;14.90;99.90
30678;DHT22;17437;47.188;8.896;2023-05-01T11:26:02;14.90;99.90
30678;DHT22;17437;47.188;8.896;2023-05-01T11:28:38;15.10;99.90
30678;DHT22;17437;47.188;8.896;2023-05-01T11:31:11;15.40;99.90
30678;DHT22;17437;47.188;8.896;2023-05-01T11:33:43;15.50;99.90
30678;DHT22;17437;47.188;8.896;2023-05-01T11:36:15;15.70;99.90
30678;DHT22;17437;47.188;8.896;2023-05-01T11:38:50;15.70;99.90
30678;DHT22;17437;47.188;8.896;2023-05-01T11:41:23;16.00;99.90
30678;DHT22;17437;47.188;8.896;2023-05-01T11:43:56;15.80;99.90
30678;DHT22;17437;47.188;8.896;2023-05-01T11:46:30;15.40;99.90
30678;DHT22;17437;47.188;8.896;2023-05-01T11:49:02;15.30;99.90
30678;DHT22;17437;47.188;8.896;2023-05-01T11:51:34;15.40;99.90
30678;DHT22;17437;47.188;8.896;2023-05-01T11:54:07;15.50;99.90
30678;DHT22;17437;47.188;8.896;2023-05-01T11:56:39;15.70;99.90
30678;DHT22;17437;47.188;8.896;2023-05-01T11:59:14;15.70;99.90
30678;DHT22;17437;47.188;8.896;2023-05-01T12:01:46;15.80;99.90
30678;DHT22;17437;47.188;8.896;2023-05-01T12:04:24;15.80;99.90
30678;DHT22;17437;47.188;8.896;2023-05-01T12:07:20;15.90;99.90
30678;DHT22;17437;47.188;8.896;2023-05-01T12:09:52;16.20;99.90
30678;DHT22;17437;47.188;8.896;2023-05-01T12:12:23;16.50;99.90
30678;DHT22;17437;47.188;8.896;2023-05-01T12:14:55;16.70;99.90
30678;DHT22;17437;47.188;8.896;2023-05-01T12:17:28;16.90;99.90
30678;DHT22;17437;47.188;8.896;2023-05-01T12:20:05;17.00;99.90
30678;DHT22;17437;47.188;8.896;2023-05-01T12:22:49;17.00;99.90
30678;DHT22;17437;47.188;8.896;2023-05-01T12:25:21;17.00;99.90
30678;DHT22;17437;47.188;8.896;2023-05-01T12:27:52;17.00;99.90
30678;DHT22;17437;47.188;8.896;2023-05-01T12:30:27;17.00;99.90
30678;DHT22;17437;47.188;8.896;2023-05-01T12:32:59;16.90;99.90
30678;DHT22;17437;47.188;8.896;2023-05-01T12:35:33;16.90;99.90
30678;DHT22;17437;47.188;8.896;2023-05-01T12:38:13;16.80;99.90
30678;DHT22;17437;47.188;8.896;2023-05-01T12:40:53;16.60;99.90
30678;DHT22;17437;47.188;8.896;2023-05-01T12:43:31;16.50;99.90
30678;DHT22;17437;47.188;8.896;2023-05-01T12:46:04;16.30;99.90
30678;DHT22;17437;47.188;8.896;2023-05-01T12:48:38;16.00;99.90
30678;DHT22;17437;47.188;8.896;2023-05-01T12:51:17;15.80;99.90
30678;DHT22;17437;47.188;8.896;2023-05-01T12:53:48;15.80;99.90
30678;DHT22;17437;47.188;8.896;2023-05-01T12:56:22;15.70;99.90
30678;DHT22;17437;47.188;8.896;2023-05-01T12:58:54;15.80;99.90
30678;DHT22;17437;47.188;8.896;2023-05-01T13:01:27;15.80;99.90
30678;DHT22;17437;47.188;8.896;2023-05-01T13:03:59;15.80;99.90
30678;DHT22;17437;47.188;8.896;2023-05-01T13:06:33;15.60;99.90
30678;DHT22;17437;47.188;8.896;2023-05-01T13:09:08;15.50;99.90
30678;DHT22;17437;47.188;8.896;2023-05-01T13:11:40;15.40;99.90
30678;DHT22;17437;47.188;8.896;2023-05-01T13:14:12;15.40;99.90
30678;DHT22;17437;47.188;8.896;2023-05-01T13:16:46;15.30;99.90
30678;DHT22;17437;47.188;8.896;2023-05-01T13:19:25;15.40;99.90
30678;DHT22;17437;47.188;8.896;2023-05-01T13:21:58;15.60;99.90
30678;DHT22;17437;47.188;8.896;2023-05-01T13:24:37;15.70;99.90
30678;DHT22;17437;47.188;8.896;2023-05-01T13:27:09;15.80;99.90
30678;DHT22;17437;47.188;8.896;2023-05-01T13:29:41;15.90;99.90
30678;DHT22;17437;47.188;8.896;2023-05-01T13:32:14;16.10;99.90
30678;DHT22;17437;47.188;8.896;2023-05-01T13:34:47;16.20;99.90
30678;DHT22;17437;47.188;8.896;2023-05-01T13:37:19;16.30;99.90
30678;DHT22;17437;47.188;8.896;2023-05-01T13:39:55;16.40;99.90
30678;DHT22;17437;47.188;8.896;2023-05-01T13:42:28;16.40;99.90
30678;DHT22;17437;47.188;8.896;2023-05-01T13:45:00;16.50;99.90
30678;DHT22;17437;47.188;8.896;2023-05-01T13:47:33;16.50;99.90
30678;DHT22;17437;47.188;8.896;2023-05-01T13:50:12;16.50;99.90
30678;DHT22;17437;47.188;8.896;2023-05-01T13:52:43;16.50;99.90
30678;DHT22;17437;47.188;8.896;2023-05-01T13:55:17;16.40;99.90
30678;DHT22;17437;47.188;8.896;2023-05-01T13:57:48;16.40;99.90
30678;DHT22;17437;47.188;8.896;2023-05-01T14:00:20;16.20;99.90
30678;DHT22;17437;47.188;8.896;2023-05-01T14:02:52;16.10;99.90
30678;DHT22;17437;47.188;8.896;2023-05-01T14:05:27;16.10;99.90
30678;DHT22;17437;47.188;8.896;2023-05-01T14:07:58;15.80;99.90
30678;DHT22;17437;47.188;8.896;2023-05-01T14:10:31;15.60;99.90
30678;DHT22;17437;47.188;8.896;2023-05-01T14:13:03;15.40;99.90
30678;DHT22;17437;47.188;8.896;2023-05-01T14:15:35;15.40;99.90
30678;DHT22;17437;47.188;8.896;2023-05-01T14:18:14;15.50;99.90
30678;DHT22;17437;47.188;8.896;2023-05-01T14:20:46;15.50;99.90
30678;DHT22;17437;47.188;8.896;2023-05-01T14:23:18;15.40;99.90
30678;DHT22;17437;47.188;8.896;2023-05-01T14:25:50;15.40;99.90
30678;DHT22;17437;47.188;8.896;2023-05-01T14:28:21;15.30;99.90
30678;DHT22;17437;47.188;8.896;2023-05-01T14:30:53;15.20;99.90
30678;DHT22;17437;47.188;8.896;2023-05-01T14:33:25;15.00;99.90
30678;DHT22;17437;47.188;8.896;2023-05-01T14:35:57;15.00;99.90
30678;DHT22;17437;47.188;8.896;2023-05-01T14:38:28;14.90;99.90
30678;DHT22;17437;47.188;8.896;2023-05-01T14:41:03;14.80;99.90
30678;DHT22;17437;47.188;8.896;2023-05-01T14:43:35;14.90;99.90
30678;DHT22;17437;47.188;8.896;2023-05-01T14:46:09;15.00;99.90
30678;DHT22;17437;47.188;8.896;2023-05-01T14:48:42;14.90;99.90
30678;DHT22;17437;47.188;8.896;2023-05-01T14:51:17;14.90;99.90
30678;DHT22;17437;47.188;8.896;2023-05-01T14:53:48;15.00;99.90
30678;DHT22;17437;47.188;8.896;2023-05-01T14:56:20;15.00;99.90
30678;DHT22;17437;47.188;8.896;2023-05-01T14:58:52;15.10;99.90
30678;DHT22;17437;47.188;8.896;2023-05-01T15:01:26;15.30;99.90
30678;DHT22;17437;47.188;8.896;2023-05-01T15:03:58;15.40;99.90
30678;DHT22;17437;47.188;8.896;2023-05-01T15:06:31;15.60;99.90
30678;DHT22;17437;47.188;8.896;2023-05-01T15:09:03;15.70;99.90
30678;DHT22;17437;47.188;8.896;2023-05-01T15:11:35;15.90;99.90
30678;DHT22;17437;47.188;8.896;2023-05-01T15:14:06;16.10;99.90
30678;DHT22;17437;47.188;8.896;2023-05-01T15:16:38;16.20;99.90
30678;DHT22;17437;47.188;8.896;2023-05-01T15:21:55;16.40;99.90
30678;DHT22;17437;47.188;8.896;2023-05-01T15:24:27;16.50;99.90
30678;DHT22;17437;47.188;8.896;2023-05-01T15:26:59;16.50;99.90
30678;DHT22;17437;47.188;8.896;2023-05-01T15:29:32;16.50;99.90
30678;DHT22;17437;47.188;8.896;2023-05-01T15:32:05;16.60;99.90
30678;DHT22;17437;47.188;8.896;2023-05-01T15:34:39;16.30;99.90
30678;DHT22;17437;47.188;8.896;2023-05-01T15:37:12;16.30;99.90
30678;DHT22;17437;47.188;8.896;2023-05-01T15:39:43;16.30;99.90
30678;DHT22;17437;47.188;8.896;2023-05-01T15:42:15;16.30;99.90
30678;DHT22;17437;47.188;8.896;2023-05-01T15:44:46;16.20;99.90
30678;DHT22;17437;47.188;8.896;2023-05-01T15:47:18;16.20;99.90
30678;DHT22;17437;47.188;8.896;2023-05-01T15:49:49;16.20;99.90
30678;DHT22;17437;47.188;8.896;2023-05-01T15:52:21;16.40;99.90
30678;DHT22;17437;47.188;8.896;2023-05-01T15:54:53;16.40;99.90
30678;DHT22;17437;47.188;8.896;2023-05-01T15:57:25;16.30;99.90
30678;DHT22;17437;47.188;8.896;2023-05-01T15:59:58;16.30;99.90
30678;DHT22;17437;47.188;8.896;2023-05-01T16:02:31;16.20;99.90
30678;DHT22;17437;47.188;8.896;2023-05-01T16:05:03;15.80;99.90
30678;DHT22;17437;47.188;8.896;2023-05-01T16:07:35;15.50;99.90
30678;DHT22;17437;47.188;8.896;2023-05-01T16:10:08;15.40;99.90
30678;DHT22;17437;47.188;8.896;2023-05-01T16:12:40;15.40;99.90